sensor_id;sensor_type;location;lat;lon;timestamp;P1;durP1;ratioP1;P2;durP2;ratioP2
25435;SDS011;13363;52.772;-3.890;2023-08-17T00:01:50;4.37;;;1.47;;
25435;SDS011;13363;52.772;-3.890;2023-08-17T00:04:16;3.40;;;1.50;;
25435;SDS011;13363;52.772;-3.890;2023-08-17T00:06:42;1.27;;;1.27;;
25435;SDS011;13363;52.772;-3.890;2023-08-17T00:09:08;1.40;;;1.30;;
25435;SDS011;13363;52.772;-3.890;2023-08-17T00:11:37;1.23;;;1.20;;
25435;SDS011;13363;52.772;-3.890;2023-08-17T00:14:03;1.20;;;1.20;;
25435;SDS011;13363;52.772;-3.890;2023-08-17T00:16:30;1.23;;;1.20;;
25435;SDS011;13363;52.772;-3.890;2023-08-17T00:18:56;1.20;;;1.20;;
25435;SDS011;13363;52.772;-3.890;2023-08-17T00:21:22;1.30;;;1.20;;
25435;SDS011;13363;52.772;-3.890;2023-08-17T00:23:48;3.13;;;1.40;;
25435;SDS011;13363;52.772;-3.890;2023-08-17T00:26:15;1.20;;;1.20;;
25435;SDS011;13363;52.772;-3.890;2023-08-17T00:28:40;1.30;;;1.30;;
25435;SDS011;13363;52.772;-3.890;2023-08-17T00:31:06;0.90;;;0.90;;
25435;SDS011;13363;52.772;-3.890;2023-08-17T00:33:32;1.77;;;1.37;;
25435;SDS011;13363;52.772;-3.890;2023-08-17T00:35:58;1.50;;;1.40;;
25435;SDS011;13363;52.772;-3.890;2023-08-17T00:38:24;1.50;;;1.40;;
25435;SDS011;13363;52.772;-3.890;2023-08-17T00:40:50;1.93;;;1.27;;
25435;SDS011;13363;52.772;-3.890;2023-08-17T00:43:15;1.07;;;1.07;;
25435;SDS011;13363;52.772;-3.890;2023-08-17T00:45:41;2.53;;;1.10;;
25435;SDS011;13363;52.772;-3.890;2023-08-17T00:48:10;2.43;;;1.23;;
25435;SDS011;13363;52.772;-3.890;2023-08-17T00:50:37;2.73;;;1.30;;
25435;SDS011;13363;52.772;-3.890;2023-08-17T00:53:04;1.30;;;1.20;;
25435;SDS011;13363;52.772;-3.890;2023-08-17T00:55:30;1.47;;;1.37;;
25435;SDS011;13363;52.772;-3.890;2023-08-17T00:57:58;1.93;;;1.30;;
25435;SDS011;13363;52.772;-3.890;2023-08-17T01:00:24;5.30;;;1.43;;
25435;SDS011;13363;52.772;-3.890;2023-08-17T01:02:53;2.20;;;1.20;;
25435;SDS011;13363;52.772;-3.890;2023-08-17T01:05:20;1.63;;;1.30;;
25435;SDS011;13363;52.772;-3.890;2023-08-17T01:07:46;3.57;;;1.33;;
25435;SDS011;13363;52.772;-3.890;2023-08-17T01:10:12;1.50;;;1.40;;
25435;SDS011;13363;52.772;-3.890;2023-08-17T01:12:48;1.20;;;1.20;;
25435;SDS011;13363;52.772;-3.890;2023-08-17T01:15:36;1.20;;;1.20;;
25435;SDS011;13363;52.772;-3.890;2023-08-17T01:18:26;1.70;;;1.27;;
25435;SDS011;13363;52.772;-3.890;2023-08-17T01:20:56;1.23;;;1.20;;
25435;SDS011;13363;52.772;-3.890;2023-08-17T01:23:23;1.27;;;1.17;;
25435;SDS011;13363;52.772;-3.890;2023-08-17T01:25:49;4.00;;;1.60;;
25435;SDS011;13363;52.772;-3.890;2023-08-17T01:28:15;1.50;;;1.40;;
25435;SDS011;13363;52.772;-3.890;2023-08-17T01:30:53;1.30;;;1.13;;
25435;SDS011;13363;52.772;-3.890;2023-08-17T01:33:44;1.37;;;1.33;;
25435;SDS011;13363;52.772;-3.890;2023-08-17T01:38:45;1.57;;;1.10;;
25435;SDS011;13363;52.772;-3.890;2023-08-17T01:41:11;1.73;;;1.67;;
25435;SDS011;13363;52.772;-3.890;2023-08-17T01:43:43;1.20;;;1.20;;
25435;SDS011;13363;52.772;-3.890;2023-08-17T01:46:14;1.20;;;1.20;;
25435;SDS011;13363;52.772;-3.890;2023-08-17T01:48:45;2.33;;;1.20;;
25435;SDS011;13363;52.772;-3.890;2023-08-17T01:51:11;1.27;;;1.17;;
25435;SDS011;13363;52.772;-3.890;2023-08-17T01:53:41;1.30;;;1.20;;
25435;SDS011;13363;52.772;-3.890;2023-08-17T01:56:07;1.40;;;1.40;;
25435;SDS011;13363;52.772;-3.890;2023-08-17T01:58:32;1.10;;;1.10;;
25435;SDS011;13363;52.772;-3.890;2023-08-17T02:00:58;1.63;;;1.20;;
25435;SDS011;13363;52.772;-3.890;2023-08-17T02:03:24;3.53;;;1.47;;
25435;SDS011;13363;52.772;-3.890;2023-08-17T02:05:50;1.17;;;1.07;;
25435;SDS011;13363;52.772;-3.890;2023-08-17T02:08:16;1.40;;;1.30;;
25435;SDS011;13363;52.772;-3.890;2023-08-17T02:10:41;4.03;;;1.40;;
25435;SDS011;13363;52.772;-3.890;2023-08-17T02:13:07;1.50;;;1.40;;
25435;SDS011;13363;52.772;-3.890;2023-08-17T02:15:37;1.73;;;1.40;;
25435;SDS011;13363;52.772;-3.890;2023-08-17T02:18:04;2.77;;;1.40;;
25435;SDS011;13363;52.772;-3.890;2023-08-17T02:20:30;1.30;;;1.20;;
25435;SDS011;13363;52.772;-3.890;2023-08-17T02:22:56;2.33;;;1.37;;
25435;SDS011;13363;52.772;-3.890;2023-08-17T02:25:22;2.10;;;1.13;;
25435;SDS011;13363;52.772;-3.890;2023-08-17T02:27:48;2.23;;;1.10;;
25435;SDS011;13363;52.772;-3.890;2023-08-17T02:30:13;1.30;;;1.30;;
25435;SDS011;13363;52.772;-3.890;2023-08-17T02:32:39;2.40;;;1.30;;
25435;SDS011;13363;52.772;-3.890;2023-08-17T02:35:06;1.40;;;1.30;;
25435;SDS011;13363;52.772;-3.890;2023-08-17T02:37:32;0.90;;;0.90;;
25435;SDS011;13363;52.772;-3.890;2023-08-17T02:39:58;2.97;;;1.17;;
25435;SDS011;13363;52.772;-3.890;2023-08-17T02:42:24;1.40;;;1.30;;
25435;SDS011;13363;52.772;-3.890;2023-08-17T02:44:50;1.30;;;1.30;;
25435;SDS011;13363;52.772;-3.890;2023-08-17T02:47:16;2.97;;;1.23;;
25435;SDS011;13363;52.772;-3.890;2023-08-17T02:49:41;1.53;;;1.40;;
25435;SDS011;13363;52.772;-3.890;2023-08-17T02:52:07;5.23;;;1.50;;
25435;SDS011;13363;52.772;-3.890;2023-08-17T02:54:33;1.30;;;1.30;;
25435;SDS011;13363;52.772;-3.890;2023-08-17T02:56:59;1.83;;;1.30;;
25435;SDS011;13363;52.772;-3.890;2023-08-17T02:59:25;1.23;;;1.13;;
25435;SDS011;13363;52.772;-3.890;2023-08-17T03:01:51;1.63;;;1.07;;
25435;SDS011;13363;52.772;-3.890;2023-08-17T03:04:18;0.93;;;0.93;;
25435;SDS011;13363;52.772;-3.890;2023-08-17T03:06:44;1.57;;;1.40;;
25435;SDS011;13363;52.772;-3.890;2023-08-17T03:09:10;2.23;;;1.43;;
25435;SDS011;13363;52.772;-3.890;2023-08-17T03:11:36;3.20;;;1.50;;
25435;SDS011;13363;52.772;-3.890;2023-08-17T03:14:02;1.93;;;1.30;;
25435;SDS011;13363;52.772;-3.890;2023-08-17T03:16:28;3.03;;;1.40;;
25435;SDS011;13363;52.772;-3.890;2023-08-17T03:18:57;1.77;;;1.33;;
25435;SDS011;13363;52.772;-3.890;2023-08-17T03:21:23;1.63;;;1.60;;
25435;SDS011;13363;52.772;-3.890;2023-08-17T03:23:49;1.43;;;1.23;;
25435;SDS011;13363;52.772;-3.890;2023-08-17T03:26:15;1.30;;;1.30;;
25435;SDS011;13363;52.772;-3.890;2023-08-17T03:28:41;1.80;;;1.40;;
25435;SDS011;13363;52.772;-3.890;2023-08-17T03:31:07;1.30;;;1.30;;
25435;SDS011;13363;52.772;-3.890;2023-08-17T03:33:34;1.70;;;1.10;;
25435;SDS011;13363;52.772;-3.890;2023-08-17T03:36:01;1.80;;;1.70;;
25435;SDS011;13363;52.772;-3.890;2023-08-17T03:38:27;1.00;;;1.00;;
25435;SDS011;13363;52.772;-3.890;2023-08-17T03:40:53;2.17;;;1.20;;
25435;SDS011;13363;52.772;-3.890;2023-08-17T03:43:19;1.17;;;1.03;;
25435;SDS011;13363;52.772;-3.890;2023-08-17T03:45:45;3.60;;;1.73;;
25435;SDS011;13363;52.772;-3.890;2023-08-17T03:48:11;7.87;;;1.33;;
25435;SDS011;13363;52.772;-3.890;2023-08-17T03:50:37;1.93;;;1.30;;
25435;SDS011;13363;52.772;-3.890;2023-08-17T03:53:03;1.63;;;1.17;;
25435;SDS011;13363;52.772;-3.890;2023-08-17T03:55:29;2.00;;;1.30;;
25435;SDS011;13363;52.772;-3.890;2023-08-17T03:57:55;1.70;;;1.57;;
25435;SDS011;13363;52.772;-3.890;2023-08-17T04:00:21;1.33;;;1.23;;
25435;SDS011;13363;52.772;-3.890;2023-08-17T04:02:47;1.03;;;0.90;;
25435;SDS011;13363;52.772;-3.890;2023-08-17T04:05:13;1.30;;;1.30;;
25435;SDS011;13363;52.772;-3.890;2023-08-17T04:07:38;1.57;;;1.10;;
25435;SDS011;13363;52.772;-3.890;2023-08-17T04:10:05;2.00;;;1.30;;
25435;SDS011;13363;52.772;-3.890;2023-08-17T04:12:31;1.10;;;1.10;;
25435;SDS011;13363;52.772;-3.890;2023-08-17T04:14:57;3.27;;;1.17;;
25435;SDS011;13363;52.772;-3.890;2023-08-17T04:17:23;1.13;;;1.13;;
25435;SDS011;13363;52.772;-3.890;2023-08-17T04:19:49;1.50;;;1.40;;
25435;SDS011;13363;52.772;-3.890;2023-08-17T04:22:14;1.53;;;1.20;;
25435;SDS011;13363;52.772;-3.890;2023-08-17T04:24:40;2.40;;;1.40;;
25435;SDS011;13363;52.772;-3.890;2023-08-17T04:27:06;1.97;;;1.33;;
25435;SDS011;13363;52.772;-3.890;2023-08-17T04:29:32;1.10;;;1.10;;
25435;SDS011;13363;52.772;-3.890;2023-08-17T04:31:58;1.40;;;1.30;;
25435;SDS011;13363;52.772;-3.890;2023-08-17T04:34:24;1.67;;;1.10;;
25435;SDS011;13363;52.772;-3.890;2023-08-17T04:36:50;1.37;;;1.27;;
25435;SDS011;13363;52.772;-3.890;2023-08-17T04:39:16;1.07;;;1.00;;
25435;SDS011;13363;52.772;-3.890;2023-08-17T04:41:42;1.73;;;1.40;;
25435;SDS011;13363;52.772;-3.890;2023-08-17T04:44:08;3.60;;;1.30;;
25435;SDS011;13363;52.772;-3.890;2023-08-17T04:46:35;1.37;;;1.00;;
25435;SDS011;13363;52.772;-3.890;2023-08-17T04:49:00;1.50;;;1.40;;
25435;SDS011;13363;52.772;-3.890;2023-08-17T04:51:26;1.27;;;1.20;;
25435;SDS011;13363;52.772;-3.890;2023-08-17T04:53:52;1.47;;;1.40;;
25435;SDS011;13363;52.772;-3.890;2023-08-17T04:56:18;3.17;;;1.57;;
25435;SDS011;13363;52.772;-3.890;2023-08-17T04:58:44;1.37;;;1.20;;
25435;SDS011;13363;52.772;-3.890;2023-08-17T05:01:10;1.20;;;1.20;;
25435;SDS011;13363;52.772;-3.890;2023-08-17T05:03:36;3.60;;;1.40;;
25435;SDS011;13363;52.772;-3.890;2023-08-17T05:06:02;2.03;;;1.33;;
25435;SDS011;13363;52.772;-3.890;2023-08-17T05:08:28;1.60;;;1.17;;
25435;SDS011;13363;52.772;-3.890;2023-08-17T05:10:54;3.30;;;1.40;;
25435;SDS011;13363;52.772;-3.890;2023-08-17T05:13:20;2.50;;;1.27;;
25435;SDS011;13363;52.772;-3.890;2023-08-17T05:15:46;1.57;;;1.20;;
25435;SDS011;13363;52.772;-3.890;2023-08-17T05:18:12;1.30;;;1.20;;
25435;SDS011;13363;52.772;-3.890;2023-08-17T05:20:38;3.03;;;1.30;;
25435;SDS011;13363;52.772;-3.890;2023-08-17T05:23:04;1.40;;;1.30;;
25435;SDS011;13363;52.772;-3.890;2023-08-17T05:25:30;1.10;;;1.10;;
25435;SDS011;13363;52.772;-3.890;2023-08-17T05:27:56;1.30;;;1.20;;
25435;SDS011;13363;52.772;-3.890;2023-08-17T05:30:22;2.83;;;1.30;;
25435;SDS011;13363;52.772;-3.890;2023-08-17T05:32:47;1.30;;;1.30;;
25435;SDS011;13363;52.772;-3.890;2023-08-17T05:35:13;2.20;;;1.53;;
25435;SDS011;13363;52.772;-3.890;2023-08-17T05:37:39;1.80;;;1.40;;
25435;SDS011;13363;52.772;-3.890;2023-08-17T05:40:05;1.50;;;1.40;;
25435;SDS011;13363;52.772;-3.890;2023-08-17T05:42:34;1.40;;;1.33;;
25435;SDS011;13363;52.772;-3.890;2023-08-17T05:44:59;2.37;;;1.30;;
25435;SDS011;13363;52.772;-3.890;2023-08-17T05:47:25;1.50;;;1.40;;
25435;SDS011;13363;52.772;-3.890;2023-08-17T05:49:51;2.13;;;1.60;;
25435;SDS011;13363;52.772;-3.890;2023-08-17T05:52:18;3.80;;;1.53;;
25435;SDS011;13363;52.772;-3.890;2023-08-17T05:54:44;1.57;;;1.37;;
25435;SDS011;13363;52.772;-3.890;2023-08-17T05:57:10;2.40;;;2.20;;
25435;SDS011;13363;52.772;-3.890;2023-08-17T05:59:36;2.37;;;1.70;;
25435;SDS011;13363;52.772;-3.890;2023-08-17T06:02:02;1.90;;;1.80;;
25435;SDS011;13363;52.772;-3.890;2023-08-17T06:04:28;1.93;;;1.73;;
25435;SDS011;13363;52.772;-3.890;2023-08-17T06:06:54;3.40;;;1.23;;
25435;SDS011;13363;52.772;-3.890;2023-08-17T06:09:20;1.60;;;1.47;;
25435;SDS011;13363;52.772;-3.890;2023-08-17T06:11:46;1.87;;;1.67;;
25435;SDS011;13363;52.772;-3.890;2023-08-17T06:14:12;2.07;;;1.50;;
25435;SDS011;13363;52.772;-3.890;2023-08-17T06:16:37;3.43;;;1.63;;
25435;SDS011;13363;52.772;-3.890;2023-08-17T06:19:03;2.27;;;2.17;;
25435;SDS011;13363;52.772;-3.890;2023-08-17T06:21:29;5.37;;;4.77;;
25435;SDS011;13363;52.772;-3.890;2023-08-17T06:23:55;15.43;;;7.30;;
25435;SDS011;13363;52.772;-3.890;2023-08-17T06:26:20;4.57;;;2.87;;
25435;SDS011;13363;52.772;-3.890;2023-08-17T06:28:46;5.83;;;4.60;;
25435;SDS011;13363;52.772;-3.890;2023-08-17T06:31:14;2.80;;;2.60;;
25435;SDS011;13363;52.772;-3.890;2023-08-17T06:33:40;5.00;;;4.57;;
25435;SDS011;13363;52.772;-3.890;2023-08-17T06:36:06;6.33;;;5.80;;
25435;SDS011;13363;52.772;-3.890;2023-08-17T06:38:32;4.83;;;4.53;;
25435;SDS011;13363;52.772;-3.890;2023-08-17T06:40:58;7.40;;;4.40;;
25435;SDS011;13363;52.772;-3.890;2023-08-17T06:43:23;1.40;;;1.30;;
25435;SDS011;13363;52.772;-3.890;2023-08-17T06:45:49;3.47;;;1.40;;
25435;SDS011;13363;52.772;-3.890;2023-08-17T06:48:15;2.30;;;1.77;;
25435;SDS011;13363;52.772;-3.890;2023-08-17T06:50:41;3.13;;;2.80;;
25435;SDS011;13363;52.772;-3.890;2023-08-17T06:53:07;3.40;;;2.45;;
25435;SDS011;13363;52.772;-3.890;2023-08-17T06:55:32;4.20;;;3.80;;
25435;SDS011;13363;52.772;-3.890;2023-08-17T06:57:58;2.03;;;1.73;;
25435;SDS011;13363;52.772;-3.890;2023-08-17T07:00:24;3.50;;;3.20;;
25435;SDS011;13363;52.772;-3.890;2023-08-17T07:02:50;1.90;;;1.77;;
25435;SDS011;13363;52.772;-3.890;2023-08-17T07:05:16;5.25;;;3.20;;
25435;SDS011;13363;52.772;-3.890;2023-08-17T07:07:43;4.47;;;4.07;;
25435;SDS011;13363;52.772;-3.890;2023-08-17T07:10:09;2.15;;;1.65;;
25435;SDS011;13363;52.772;-3.890;2023-08-17T07:12:36;2.55;;;2.35;;
25435;SDS011;13363;52.772;-3.890;2023-08-17T07:15:03;4.90;;;4.40;;
25435;SDS011;13363;52.772;-3.890;2023-08-17T07:17:29;3.08;;;1.33;;
25435;SDS011;13363;52.772;-3.890;2023-08-17T07:19:56;2.58;;;2.47;;
25435;SDS011;13363;52.772;-3.890;2023-08-17T07:22:21;3.38;;;2.92;;
25435;SDS011;13363;52.772;-3.890;2023-08-17T07:24:48;1.65;;;1.48;;
25435;SDS011;13363;52.772;-3.890;2023-08-17T07:27:13;2.15;;;2.05;;
25435;SDS011;13363;52.772;-3.890;2023-08-17T07:29:39;1.80;;;1.70;;
25435;SDS011;13363;52.772;-3.890;2023-08-17T07:32:05;2.10;;;1.90;;
25435;SDS011;13363;52.772;-3.890;2023-08-17T07:34:31;4.75;;;3.42;;
25435;SDS011;13363;52.772;-3.890;2023-08-17T07:36:57;4.82;;;3.97;;
25435;SDS011;13363;52.772;-3.890;2023-08-17T07:39:23;2.50;;;2.40;;
25435;SDS011;13363;52.772;-3.890;2023-08-17T07:41:50;4.85;;;2.90;;
25435;SDS011;13363;52.772;-3.890;2023-08-17T07:44:16;3.00;;;2.80;;
25435;SDS011;13363;52.772;-3.890;2023-08-17T07:46:41;3.20;;;2.70;;
25435;SDS011;13363;52.772;-3.890;2023-08-17T07:49:07;3.22;;;2.92;;
25435;SDS011;13363;52.772;-3.890;2023-08-17T07:51:33;4.35;;;2.65;;
25435;SDS011;13363;52.772;-3.890;2023-08-17T07:54:00;1.80;;;1.70;;
25435;SDS011;13363;52.772;-3.890;2023-08-17T07:56:26;3.08;;;2.80;;
25435;SDS011;13363;52.772;-3.890;2023-08-17T07:58:55;3.20;;;2.85;;
25435;SDS011;13363;52.772;-3.890;2023-08-17T08:01:21;3.35;;;2.55;;
25435;SDS011;13363;52.772;-3.890;2023-08-17T08:03:47;3.38;;;2.50;;
25435;SDS011;13363;52.772;-3.890;2023-08-17T08:06:13;3.45;;;3.15;;
25435;SDS011;13363;52.772;-3.890;2023-08-17T08:08:39;2.95;;;2.70;;
25435;SDS011;13363;52.772;-3.890;2023-08-17T08:11:05;7.53;;;3.33;;
25435;SDS011;13363;52.772;-3.890;2023-08-17T08:13:31;4.50;;;4.00;;
25435;SDS011;13363;52.772;-3.890;2023-08-17T08:16:00;6.40;;;5.15;;
25435;SDS011;13363;52.772;-3.890;2023-08-17T08:18:26;5.50;;;5.00;;
25435;SDS011;13363;52.772;-3.890;2023-08-17T08:20:52;7.00;;;5.03;;
25435;SDS011;13363;52.772;-3.890;2023-08-17T08:23:18;5.00;;;4.57;;
25435;SDS011;13363;52.772;-3.890;2023-08-17T08:25:43;7.10;;;5.63;;
25435;SDS011;13363;52.772;-3.890;2023-08-17T08:28:09;6.80;;;5.47;;
25435;SDS011;13363;52.772;-3.890;2023-08-17T08:30:37;6.70;;;6.10;;
25435;SDS011;13363;52.772;-3.890;2023-08-17T08:33:03;6.37;;;5.87;;
25435;SDS011;13363;52.772;-3.890;2023-08-17T08:35:29;7.00;;;6.40;;
25435;SDS011;13363;52.772;-3.890;2023-08-17T08:37:54;6.03;;;5.63;;
25435;SDS011;13363;52.772;-3.890;2023-08-17T08:40:21;5.90;;;5.00;;
25435;SDS011;13363;52.772;-3.890;2023-08-17T08:42:56;6.33;;;5.83;;
25435;SDS011;13363;52.772;-3.890;2023-08-17T08:45:22;7.17;;;6.70;;
25435;SDS011;13363;52.772;-3.890;2023-08-17T08:47:49;6.47;;;5.97;;
25435;SDS011;13363;52.772;-3.890;2023-08-17T08:50:19;6.23;;;5.73;;
25435;SDS011;13363;52.772;-3.890;2023-08-17T08:52:58;6.37;;;5.97;;
25435;SDS011;13363;52.772;-3.890;2023-08-17T08:55:27;6.17;;;5.03;;
25435;SDS011;13363;52.772;-3.890;2023-08-17T08:57:56;6.87;;;6.20;;
25435;SDS011;13363;52.772;-3.890;2023-08-17T09:00:22;6.47;;;5.80;;
25435;SDS011;13363;52.772;-3.890;2023-08-17T09:02:49;6.07;;;5.53;;
25435;SDS011;13363;52.772;-3.890;2023-08-17T09:05:16;7.67;;;6.03;;
25435;SDS011;13363;52.772;-3.890;2023-08-17T09:07:43;5.68;;;5.28;;
25435;SDS011;13363;52.772;-3.890;2023-08-17T09:10:10;5.87;;;4.90;;
25435;SDS011;13363;52.772;-3.890;2023-08-17T09:12:36;5.50;;;5.00;;
25435;SDS011;13363;52.772;-3.890;2023-08-17T09:15:06;5.23;;;4.73;;
25435;SDS011;13363;52.772;-3.890;2023-08-17T09:17:33;5.13;;;4.72;;
25435;SDS011;13363;52.772;-3.890;2023-08-17T09:19:59;4.47;;;4.07;;
25435;SDS011;13363;52.772;-3.890;2023-08-17T09:22:26;4.30;;;3.90;;
25435;SDS011;13363;52.772;-3.890;2023-08-17T09:25:01;4.97;;;4.53;;
25435;SDS011;13363;52.772;-3.890;2023-08-17T09:27:27;6.38;;;5.72;;
25435;SDS011;13363;52.772;-3.890;2023-08-17T09:30:00;5.82;;;5.32;;
25435;SDS011;13363;52.772;-3.890;2023-08-17T09:32:32;7.13;;;6.40;;
25435;SDS011;13363;52.772;-3.890;2023-08-17T09:35:04;6.93;;;6.32;;
25435;SDS011;13363;52.772;-3.890;2023-08-17T09:37:31;7.18;;;6.57;;
25435;SDS011;13363;52.772;-3.890;2023-08-17T09:39:57;5.95;;;5.45;;
25435;SDS011;13363;52.772;-3.890;2023-08-17T09:42:24;6.05;;;5.45;;
25435;SDS011;13363;52.772;-3.890;2023-08-17T09:44:51;6.50;;;6.00;;
25435;SDS011;13363;52.772;-3.890;2023-08-17T09:47:18;6.25;;;5.65;;
25435;SDS011;13363;52.772;-3.890;2023-08-17T09:49:48;8.75;;;5.65;;
25435;SDS011;13363;52.772;-3.890;2023-08-17T09:52:14;7.40;;;6.75;;
25435;SDS011;13363;52.772;-3.890;2023-08-17T09:54:40;8.48;;;5.93;;
25435;SDS011;13363;52.772;-3.890;2023-08-17T09:57:07;7.93;;;5.70;;
25435;SDS011;13363;52.772;-3.890;2023-08-17T09:59:34;6.28;;;5.75;;
25435;SDS011;13363;52.772;-3.890;2023-08-17T10:02:00;7.13;;;6.50;;
25435;SDS011;13363;52.772;-3.890;2023-08-17T10:04:28;7.90;;;7.30;;
25435;SDS011;13363;52.772;-3.890;2023-08-17T10:07:00;6.82;;;6.32;;
25435;SDS011;13363;52.772;-3.890;2023-08-17T10:09:31;9.40;;;6.13;;
25435;SDS011;13363;52.772;-3.890;2023-08-17T10:12:04;7.00;;;6.22;;
25435;SDS011;13363;52.772;-3.890;2023-08-17T10:14:36;6.22;;;5.68;;
25435;SDS011;13363;52.772;-3.890;2023-08-17T10:17:11;7.85;;;6.40;;
25435;SDS011;13363;52.772;-3.890;2023-08-17T10:19:49;8.13;;;6.72;;
25435;SDS011;13363;52.772;-3.890;2023-08-17T10:24:58;7.35;;;6.70;;
25435;SDS011;13363;52.772;-3.890;2023-08-17T10:27:26;7.50;;;6.88;;
25435;SDS011;13363;52.772;-3.890;2023-08-17T10:29:52;7.55;;;6.82;;
25435;SDS011;13363;52.772;-3.890;2023-08-17T10:32:20;7.13;;;6.43;;
25435;SDS011;13363;52.772;-3.890;2023-08-17T10:34:48;7.70;;;6.40;;
25435;SDS011;13363;52.772;-3.890;2023-08-17T10:37:16;10.25;;;6.35;;
25435;SDS011;13363;52.772;-3.890;2023-08-17T10:39:47;7.85;;;7.10;;
25435;SDS011;13363;52.772;-3.890;2023-08-17T10:42:14;6.32;;;5.80;;
25435;SDS011;13363;52.772;-3.890;2023-08-17T10:44:47;5.63;;;5.22;;
25435;SDS011;13363;52.772;-3.890;2023-08-17T10:47:20;6.65;;;6.00;;
25435;SDS011;13363;52.772;-3.890;2023-08-17T10:49:59;6.05;;;5.53;;
25435;SDS011;13363;52.772;-3.890;2023-08-17T10:52:32;7.35;;;5.93;;
25435;SDS011;13363;52.772;-3.890;2023-08-17T10:55:06;5.65;;;5.10;;
25435;SDS011;13363;52.772;-3.890;2023-08-17T11:00:08;9.25;;;6.03;;
25435;SDS011;13363;52.772;-3.890;2023-08-17T11:02:40;5.75;;;5.10;;
25435;SDS011;13363;52.772;-3.890;2023-08-17T11:05:09;4.95;;;4.55;;
25435;SDS011;13363;52.772;-3.890;2023-08-17T11:07:40;6.38;;;4.72;;
25435;SDS011;13363;52.772;-3.890;2023-08-17T11:10:26;6.70;;;5.07;;
25435;SDS011;13363;52.772;-3.890;2023-08-17T11:12:55;5.65;;;5.15;;
25435;SDS011;13363;52.772;-3.890;2023-08-17T11:15:30;6.78;;;5.05;;
25435;SDS011;13363;52.772;-3.890;2023-08-17T11:18:05;5.05;;;4.45;;
25435;SDS011;13363;52.772;-3.890;2023-08-17T11:20:32;6.22;;;4.90;;
25435;SDS011;13363;52.772;-3.890;2023-08-17T11:22:59;4.90;;;4.30;;
25435;SDS011;13363;52.772;-3.890;2023-08-17T11:25:28;5.43;;;4.50;;
25435;SDS011;13363;52.772;-3.890;2023-08-17T11:27:54;4.97;;;4.47;;
25435;SDS011;13363;52.772;-3.890;2023-08-17T11:30:21;5.40;;;4.93;;
25435;SDS011;13363;52.772;-3.890;2023-08-17T11:32:50;5.38;;;5.00;;
25435;SDS011;13363;52.772;-3.890;2023-08-17T11:35:17;5.88;;;5.25;;
25435;SDS011;13363;52.772;-3.890;2023-08-17T11:37:44;5.18;;;4.75;;
25435;SDS011;13363;52.772;-3.890;2023-08-17T11:40:12;5.05;;;4.45;;
25435;SDS011;13363;52.772;-3.890;2023-08-17T11:42:38;6.63;;;4.75;;
25435;SDS011;13363;52.772;-3.890;2023-08-17T11:45:04;4.43;;;4.00;;
25435;SDS011;13363;52.772;-3.890;2023-08-17T11:47:31;4.70;;;4.30;;
25435;SDS011;13363;52.772;-3.890;2023-08-17T11:50:04;5.43;;;4.93;;
25435;SDS011;13363;52.772;-3.890;2023-08-17T11:52:31;5.57;;;4.90;;
25435;SDS011;13363;52.772;-3.890;2023-08-17T11:54:58;6.45;;;5.00;;
25435;SDS011;13363;52.772;-3.890;2023-08-17T11:57:25;6.07;;;4.35;;
25435;SDS011;13363;52.772;-3.890;2023-08-17T11:59:55;7.38;;;4.63;;
25435;SDS011;13363;52.772;-3.890;2023-08-17T12:02:22;4.40;;;4.10;;
25435;SDS011;13363;52.772;-3.890;2023-08-17T12:04:49;5.00;;;4.60;;
25435;SDS011;13363;52.772;-3.890;2023-08-17T12:07:15;4.57;;;4.28;;
25435;SDS011;13363;52.772;-3.890;2023-08-17T12:09:43;4.60;;;4.30;;
25435;SDS011;13363;52.772;-3.890;2023-08-17T12:12:10;6.97;;;4.90;;
25435;SDS011;13363;52.772;-3.890;2023-08-17T12:14:36;5.88;;;5.43;;
25435;SDS011;13363;52.772;-3.890;2023-08-17T12:17:06;5.28;;;4.82;;
25435;SDS011;13363;52.772;-3.890;2023-08-17T12:19:32;4.60;;;4.30;;
25435;SDS011;13363;52.772;-3.890;2023-08-17T12:21:57;4.95;;;4.57;;
25435;SDS011;13363;52.772;-3.890;2023-08-17T12:24:23;5.13;;;4.82;;
25435;SDS011;13363;52.772;-3.890;2023-08-17T12:26:50;5.45;;;4.97;;
25435;SDS011;13363;52.772;-3.890;2023-08-17T12:29:15;4.60;;;4.20;;
25435;SDS011;13363;52.772;-3.890;2023-08-17T12:31:41;5.05;;;4.53;;
25435;SDS011;13363;52.772;-3.890;2023-08-17T12:34:07;5.35;;;4.85;;
25435;SDS011;13363;52.772;-3.890;2023-08-17T12:36:33;4.25;;;3.95;;
25435;SDS011;13363;52.772;-3.890;2023-08-17T12:39:03;4.25;;;3.65;;
25435;SDS011;13363;52.772;-3.890;2023-08-17T12:41:30;6.82;;;4.30;;
25435;SDS011;13363;52.772;-3.890;2023-08-17T12:43:56;4.70;;;4.30;;
25435;SDS011;13363;52.772;-3.890;2023-08-17T12:46:24;4.18;;;3.60;;
25435;SDS011;13363;52.772;-3.890;2023-08-17T12:48:50;4.35;;;4.00;;
25435;SDS011;13363;52.772;-3.890;2023-08-17T12:51:16;4.13;;;3.83;;
25435;SDS011;13363;52.772;-3.890;2023-08-17T12:53:42;5.10;;;3.55;;
25435;SDS011;13363;52.772;-3.890;2023-08-17T12:56:08;4.32;;;3.92;;
25435;SDS011;13363;52.772;-3.890;2023-08-17T12:58:34;4.40;;;3.42;;
25435;SDS011;13363;52.772;-3.890;2023-08-17T13:01:00;5.13;;;3.70;;
25435;SDS011;13363;52.772;-3.890;2023-08-17T13:03:27;5.53;;;3.55;;
25435;SDS011;13363;52.772;-3.890;2023-08-17T13:05:57;7.25;;;4.78;;
25435;SDS011;13363;52.772;-3.890;2023-08-17T13:08:23;4.30;;;3.72;;
25435;SDS011;13363;52.772;-3.890;2023-08-17T13:10:50;3.88;;;3.58;;
25435;SDS011;13363;52.772;-3.890;2023-08-17T13:13:21;3.70;;;3.50;;
25435;SDS011;13363;52.772;-3.890;2023-08-17T13:15:50;4.90;;;4.55;;
25435;SDS011;13363;52.772;-3.890;2023-08-17T13:18:16;3.58;;;3.33;;
25435;SDS011;13363;52.772;-3.890;2023-08-17T13:20:42;4.95;;;3.47;;
25435;SDS011;13363;52.772;-3.890;2023-08-17T13:23:08;3.60;;;3.35;;
25435;SDS011;13363;52.772;-3.890;2023-08-17T13:25:34;3.80;;;3.50;;
25435;SDS011;13363;52.772;-3.890;2023-08-17T13:28:00;3.53;;;3.22;;
25435;SDS011;13363;52.772;-3.890;2023-08-17T13:30:26;3.40;;;3.20;;
25435;SDS011;13363;52.772;-3.890;2023-08-17T13:32:52;4.20;;;3.22;;
25435;SDS011;13363;52.772;-3.890;2023-08-17T13:35:18;9.57;;;3.67;;
25435;SDS011;13363;52.772;-3.890;2023-08-17T13:37:44;5.05;;;3.50;;
25435;SDS011;13363;52.772;-3.890;2023-08-17T13:40:10;3.85;;;3.60;;
25435;SDS011;13363;52.772;-3.890;2023-08-17T13:42:36;3.60;;;3.30;;
25435;SDS011;13363;52.772;-3.890;2023-08-17T13:45:02;4.88;;;3.88;;
25435;SDS011;13363;52.772;-3.890;2023-08-17T13:47:28;3.45;;;3.25;;
25435;SDS011;13363;52.772;-3.890;2023-08-17T13:49:54;4.25;;;3.90;;
25435;SDS011;13363;52.772;-3.890;2023-08-17T13:52:22;3.30;;;3.10;;
25435;SDS011;13363;52.772;-3.890;2023-08-17T13:54:48;3.55;;;3.25;;
25435;SDS011;13363;52.772;-3.890;2023-08-17T13:57:13;3.50;;;3.20;;
25435;SDS011;13363;52.772;-3.890;2023-08-17T13:59:39;3.58;;;3.10;;
25435;SDS011;13363;52.772;-3.890;2023-08-17T14:02:05;2.85;;;2.65;;
25435;SDS011;13363;52.772;-3.890;2023-08-17T14:04:31;4.05;;;3.70;;
25435;SDS011;13363;52.772;-3.890;2023-08-17T14:06:57;3.53;;;3.15;;
25435;SDS011;13363;52.772;-3.890;2023-08-17T14:09:23;3.20;;;3.00;;
25435;SDS011;13363;52.772;-3.890;2023-08-17T14:11:49;3.58;;;3.00;;
25435;SDS011;13363;52.772;-3.890;2023-08-17T14:14:15;2.92;;;2.70;;
25435;SDS011;13363;52.772;-3.890;2023-08-17T14:16:41;3.50;;;2.72;;
25435;SDS011;13363;52.772;-3.890;2023-08-17T14:19:07;2.40;;;2.20;;
25435;SDS011;13363;52.772;-3.890;2023-08-17T14:21:33;3.28;;;2.42;;
25435;SDS011;13363;52.772;-3.890;2023-08-17T14:23:59;2.72;;;2.53;;
25435;SDS011;13363;52.772;-3.890;2023-08-17T14:26:25;2.95;;;2.75;;
25435;SDS011;13363;52.772;-3.890;2023-08-17T14:28:51;3.55;;;2.60;;
25435;SDS011;13363;52.772;-3.890;2023-08-17T14:31:17;2.53;;;2.40;;
25435;SDS011;13363;52.772;-3.890;2023-08-17T14:33:43;2.90;;;2.65;;
25435;SDS011;13363;52.772;-3.890;2023-08-17T14:36:13;2.75;;;2.45;;
25435;SDS011;13363;52.772;-3.890;2023-08-17T14:38:39;3.25;;;2.95;;
25435;SDS011;13363;52.772;-3.890;2023-08-17T14:41:05;2.88;;;2.67;;